createdAt,value
2023-03-22T00:02:26.348Z,9.70
2023-03-22T00:04:53.735Z,9.70
2023-03-22T00:07:20.800Z,9.60
2023-03-22T00:09:47.748Z,9.60
2023-03-22T00:12:14.697Z,9.60
2023-03-22T00:14:41.556Z,9.60
2023-03-22T00:17:08.546Z,9.50
2023-03-22T00:19:35.743Z,9.50
2023-03-22T00:22:06.164Z,9.60
2023-03-22T00:24:33.381Z,9.70
2023-03-22T00:27:00.998Z,9.70
2023-03-22T00:29:28.088Z,9.80
2023-03-22T00:31:56.260Z,9.80
2023-03-22T00:34:23.081Z,9.90
2023-03-22T00:36:49.993Z,10.00
2023-03-22T00:39:16.905Z,10.00
2023-03-22T00:41:43.754Z,9.90
2023-03-22T00:44:10.798Z,10.00
2023-03-22T00:46:37.986Z,10.10
2023-03-22T00:49:05.078Z,10.10
2023-03-22T00:51:32.006Z,10.20
2023-03-22T00:53:58.936Z,10.20
2023-03-22T00:56:29.043Z,10.30
2023-03-22T00:58:56.292Z,10.30
2023-03-22T01:01:23.646Z,10.30
2023-03-22T01:03:50.910Z,10.30
2023-03-22T01:06:18.275Z,10.30
2023-03-22T01:08:45.231Z,10.30
2023-03-22T01:11:12.382Z,10.30
2023-03-22T01:13:39.558Z,10.40
2023-03-22T01:16:08.292Z,10.30
2023-03-22T01:18:35.885Z,10.40
2023-03-22T01:21:03.015Z,10.40
2023-03-22T01:23:29.977Z,10.40
2023-03-22T01:25:56.860Z,10.40
2023-03-22T01:28:26.885Z,10.40
2023-03-22T01:30:54.921Z,10.50
2023-03-22T01:33:22.429Z,10.40
2023-03-22T01:35:49.700Z,10.50
2023-03-22T01:38:18.883Z,10.50
2023-03-22T01:40:47.576Z,10.50
2023-03-22T01:43:17.324Z,10.50
2023-03-22T01:45:48.983Z,10.60
2023-03-22T01:48:24.929Z,10.50
2023-03-22T01:51:07.386Z,10.50
2023-03-22T01:53:38.852Z,10.50
2023-03-22T01:56:06.630Z,10.50
2023-03-22T01:58:36.476Z,10.50
2023-03-22T02:01:05.490Z,10.50
2023-03-22T02:03:38.651Z,10.40
2023-03-22T02:06:05.780Z,10.50
2023-03-22T02:08:33.854Z,10.50
2023-03-22T02:11:07.753Z,10.40
2023-03-22T02:14:03.907Z,10.50
2023-03-22T02:16:48.780Z,10.50
2023-03-22T02:19:42.449Z,10.50
2023-03-22T02:22:53.218Z,10.40
2023-03-22T02:25:52.669Z,10.40
2023-03-22T02:28:43.743Z,10.40
2023-03-22T02:31:31.898Z,10.40
2023-03-22T02:34:31.050Z,10.40
2023-03-22T02:37:19.114Z,10.40
2023-03-22T02:40:05.711Z,10.50
2023-03-22T02:42:43.142Z,10.60
2023-03-22T02:45:36.938Z,10.60
2023-03-22T02:48:09.473Z,10.40
2023-03-22T02:50:47.740Z,10.40
2023-03-22T02:53:25.714Z,10.40
2023-03-22T02:56:13.036Z,10.40
2023-03-22T02:58:48.256Z,10.40
2023-03-22T03:01:24.554Z,10.40
2023-03-22T03:03:56.641Z,10.30
2023-03-22T03:06:26.304Z,10.30
2023-03-22T03:08:54.632Z,10.30
2023-03-22T03:11:21.654Z,10.30
2023-03-22T03:13:49.597Z,10.30
2023-03-22T03:16:20.783Z,10.20
2023-03-22T03:18:57.402Z,10.30
2023-03-22T03:21:32.811Z,10.30
2023-03-22T03:24:33.252Z,10.10
2023-03-22T03:27:12.138Z,10.20
2023-03-22T03:29:42.011Z,10.30
2023-03-22T03:32:17.406Z,10.20
2023-03-22T03:34:52.824Z,10.20
2023-03-22T03:37:24.040Z,10.20
2023-03-22T03:40:14.549Z,10.20
2023-03-22T03:42:49.278Z,10.20
2023-03-22T03:45:18.499Z,10.30
2023-03-22T03:47:47.597Z,10.10
2023-03-22T03:50:16.453Z,10.10
2023-03-22T03:52:43.518Z,10.10
2023-03-22T03:55:10.621Z,10.10
2023-03-22T03:57:37.520Z,10.20
2023-03-22T04:00:05.689Z,10.10
2023-03-22T04:02:32.731Z,10.20
2023-03-22T04:04:59.766Z,10.20
2023-03-22T04:07:27.427Z,10.20
2023-03-22T04:09:54.349Z,10.20
2023-03-22T04:12:21.330Z,10.20
2023-03-22T04:14:48.295Z,10.20
2023-03-22T04:17:15.628Z,10.20
2023-03-22T04:19:44.723Z,10.20
2023-03-22T04:22:14.974Z,10.20
2023-03-22T04:24:42.222Z,10.20
2023-03-22T04:27:09.290Z,10.20
2023-03-22T04:29:36.434Z,10.30
2023-03-22T04:32:03.931Z,10.30
2023-03-22T04:34:31.788Z,10.40
2023-03-22T04:37:02.546Z,10.40
2023-03-22T04:39:30.483Z,10.30
2023-03-22T04:41:57.436Z,10.40
2023-03-22T04:44:24.367Z,10.40
2023-03-22T04:46:51.361Z,10.40
2023-03-22T04:49:18.459Z,10.60
2023-03-22T04:51:45.663Z,10.50
2023-03-22T04:54:12.911Z,10.50
2023-03-22T04:56:40.024Z,10.50
2023-03-22T04:59:12.708Z,10.50
2023-03-22T05:01:40.819Z,10.50
2023-03-22T05:04:07.813Z,10.60
2023-03-22T05:06:34.731Z,10.60
2023-03-22T05:09:01.880Z,10.60
2023-03-22T05:11:28.878Z,10.60
2023-03-22T05:13:56.620Z,10.70
2023-03-22T05:16:26.616Z,10.70
2023-03-22T05:18:56.935Z,10.70
2023-03-22T05:21:28.501Z,10.70
2023-03-22T05:23:57.024Z,10.70
2023-03-22T05:26:27.177Z,10.70
2023-03-22T05:28:55.109Z,10.70
2023-03-22T05:31:22.838Z,10.70
2023-03-22T05:33:52.045Z,10.70
2023-03-22T05:36:20.780Z,10.70
2023-03-22T05:38:47.948Z,10.70
2023-03-22T05:41:15.432Z,10.70
2023-03-22T05:43:42.649Z,10.70
2023-03-22T05:46:11.718Z,10.80
2023-03-22T05:48:40.430Z,10.70
2023-03-22T05:51:09.297Z,10.70
2023-03-22T05:53:36.684Z,10.70
2023-03-22T05:56:03.945Z,10.70
2023-03-22T05:58:31.878Z,10.80
2023-03-22T06:01:06.084Z,10.80
2023-03-22T06:03:32.968Z,10.80
2023-03-22T06:05:59.934Z,10.80
2023-03-22T06:08:27.072Z,10.90
2023-03-22T06:10:54.422Z,10.90
2023-03-22T06:13:21.821Z,10.90
2023-03-22T06:15:48.753Z,11.00
2023-03-22T06:18:15.681Z,11.10
2023-03-22T06:20:42.916Z,11.10
2023-03-22T06:23:10.262Z,11.20
2023-03-22T06:25:37.332Z,11.20
2023-03-22T06:28:06.909Z,11.20
2023-03-22T06:30:42.103Z,11.20
2023-03-22T06:33:09.262Z,11.40
2023-03-22T06:35:39.410Z,11.50
2023-03-22T06:38:06.261Z,11.70
2023-03-22T06:40:36.732Z,11.80
2023-03-22T06:43:07.026Z,11.90
2023-03-22T06:45:34.206Z,12.10
2023-03-22T06:48:01.533Z,12.20
2023-03-22T06:50:29.524Z,12.30
2023-03-22T06:52:56.594Z,12.20
2023-03-22T06:55:24.573Z,12.10
2023-03-22T06:57:51.531Z,12.00
2023-03-22T07:00:21.720Z,12.00
2023-03-22T07:02:58.278Z,12.30
2023-03-22T07:05:25.718Z,12.70
2023-03-22T07:07:53.241Z,13.00
2023-03-22T07:10:20.471Z,13.10
2023-03-22T07:12:47.521Z,13.00
2023-03-22T07:15:17.534Z,13.00
2023-03-22T07:17:44.411Z,13.40
2023-03-22T07:20:11.689Z,13.60
2023-03-22T07:22:43.354Z,13.30
2023-03-22T07:25:10.355Z,13.20
2023-03-22T07:27:37.577Z,13.00
2023-03-22T07:30:06.804Z,12.90
2023-03-22T07:32:34.668Z,12.80
2023-03-22T07:35:04.869Z,12.70
2023-03-22T07:37:31.718Z,12.70
2023-03-22T07:39:58.757Z,12.60
2023-03-22T07:42:25.937Z,12.50
2023-03-22T07:44:53.527Z,12.50
2023-03-22T07:47:37.687Z,12.50
2023-03-22T07:50:07.631Z,12.50
2023-03-22T07:52:34.734Z,12.50
2023-03-22T07:55:01.884Z,12.50
2023-03-22T07:57:28.831Z,12.50
2023-03-22T07:59:57.181Z,12.50
2023-03-22T08:02:24.383Z,12.50
2023-03-22T08:04:55.100Z,12.50
2023-03-22T08:07:25.476Z,12.50
2023-03-22T08:09:53.340Z,12.50
2023-03-22T08:12:20.655Z,12.60
2023-03-22T08:14:51.445Z,12.60
2023-03-22T08:17:19.246Z,12.60
2023-03-22T08:19:50.135Z,12.70
2023-03-22T08:22:17.577Z,12.50
2023-03-22T08:24:46.144Z,12.40
2023-03-22T08:27:14.250Z,12.50
2023-03-22T08:29:42.993Z,12.50
2023-03-22T08:32:10.497Z,12.50
2023-03-22T08:34:39.397Z,12.50
2023-03-22T08:37:07.271Z,12.70
2023-03-22T08:39:39.033Z,13.00
2023-03-22T08:42:10.274Z,13.60
2023-03-22T08:44:37.378Z,14.20
2023-03-22T08:47:05.661Z,14.60
2023-03-22T08:49:33.516Z,14.50
2023-03-22T08:52:02.031Z,14.40
2023-03-22T08:54:33.648Z,14.50
2023-03-22T08:57:00.914Z,14.30
2023-03-22T08:59:28.279Z,14.00
2023-03-22T09:01:56.589Z,13.90
2023-03-22T09:04:31.034Z,13.80
2023-03-22T09:06:58.051Z,13.70
2023-03-22T09:09:25.071Z,13.70
2023-03-22T09:11:52.242Z,13.70
2023-03-22T09:14:19.337Z,13.70
2023-03-22T09:16:49.568Z,14.00
2023-03-22T09:19:17.660Z,14.10
2023-03-22T09:21:48.304Z,14.10
2023-03-22T09:24:15.565Z,14.10
2023-03-22T09:26:42.505Z,14.20
2023-03-22T09:29:09.950Z,14.40
2023-03-22T09:31:37.503Z,14.30
2023-03-22T09:34:04.965Z,14.40
2023-03-22T09:36:32.705Z,14.30
2023-03-22T09:39:00.211Z,14.30
2023-03-22T09:41:39.864Z,14.50
2023-03-22T09:44:18.453Z,14.50
2023-03-22T09:46:50.053Z,14.40
2023-03-22T09:49:22.770Z,14.30
2023-03-22T09:51:56.668Z,14.20
2023-03-22T09:54:29.853Z,14.20
2023-03-22T09:57:18.577Z,14.40
2023-03-22T10:00:20.954Z,14.80
2023-03-22T10:03:00.809Z,14.80
2023-03-22T10:05:53.311Z,14.70
2023-03-22T10:08:42.479Z,14.80
2023-03-22T10:11:52.598Z,14.90
2023-03-22T10:14:49.561Z,14.70
2023-03-22T10:17:19.725Z,14.40
2023-03-22T10:20:21.781Z,14.40
2023-03-22T10:22:53.217Z,14.40
2023-03-22T10:25:24.296Z,14.50
2023-03-22T10:27:52.558Z,14.60
2023-03-22T10:30:25.691Z,14.60
2023-03-22T10:33:07.190Z,14.70
2023-03-22T10:35:34.452Z,14.80
2023-03-22T10:38:05.551Z,14.80
2023-03-22T10:40:35.568Z,15.00
2023-03-22T10:43:23.893Z,15.10
2023-03-22T10:45:54.206Z,14.90
2023-03-22T10:48:36.157Z,14.80
2023-03-22T10:51:04.292Z,14.80
2023-03-22T10:53:47.229Z,14.90
2023-03-22T10:56:20.195Z,15.30
2023-03-22T10:58:49.606Z,15.50
2023-03-22T11:01:32.674Z,15.70
2023-03-22T11:04:16.119Z,15.90
2023-03-22T11:06:56.073Z,16.00
2023-03-22T11:09:24.919Z,15.80
2023-03-22T11:11:57.772Z,15.40
2023-03-22T11:14:35.844Z,15.40
2023-03-22T11:17:03.059Z,15.20
2023-03-22T11:19:36.919Z,15.20
2023-03-22T11:22:21.374Z,15.10
2023-03-22T11:24:49.148Z,15.00
2023-03-22T11:27:28.897Z,15.20
2023-03-22T11:30:20.172Z,15.20
2023-03-22T11:32:47.676Z,15.30
2023-03-22T11:35:28.052Z,15.70
2023-03-22T11:37:56.284Z,15.80
2023-03-22T11:40:27.244Z,16.00
2023-03-22T11:43:24.570Z,16.00
2023-03-22T11:45:56.459Z,15.80
2023-03-22T11:48:27.458Z,15.70
2023-03-22T11:51:05.183Z,15.80
2023-03-22T11:53:34.457Z,15.80
2023-03-22T11:56:03.461Z,15.80
2023-03-22T11:58:47.731Z,15.70
2023-03-22T12:01:24.520Z,15.60
2023-03-22T12:03:58.946Z,15.50
2023-03-22T12:06:31.869Z,15.30
2023-03-22T12:09:02.370Z,15.20
2023-03-22T12:11:51.747Z,15.30
2023-03-22T12:14:45.377Z,15.30
2023-03-22T12:17:29.038Z,15.30
2023-03-22T12:20:15.555Z,15.30
2023-03-22T12:22:47.910Z,15.30
2023-03-22T12:25:25.308Z,15.20
2023-03-22T12:27:59.314Z,15.20
2023-03-22T12:30:31.467Z,15.30
2023-03-22T12:33:24.911Z,15.30
2023-03-22T12:35:57.228Z,15.20
2023-03-22T12:38:42.813Z,15.20
2023-03-22T12:41:17.683Z,15.30
2023-03-22T12:43:51.463Z,15.30
2023-03-22T12:46:26.702Z,15.40
2023-03-22T12:49:28.047Z,15.40
2023-03-22T12:52:02.562Z,15.30
2023-03-22T12:54:29.796Z,15.20
2023-03-22T12:56:57.396Z,15.20
2023-03-22T12:59:29.045Z,15.10
2023-03-22T13:02:14.923Z,15.00
2023-03-22T13:04:43.376Z,15.00
2023-03-22T13:07:32.154Z,14.90
2023-03-22T13:10:00.789Z,14.80
2023-03-22T13:12:31.836Z,14.80
2023-03-22T13:15:23.809Z,14.70
2023-03-22T13:17:57.705Z,14.70
2023-03-22T13:20:28.549Z,14.60
2023-03-22T13:22:55.501Z,14.50
2023-03-22T13:25:29.798Z,14.30
2023-03-22T13:28:26.472Z,14.10
2023-03-22T13:30:56.648Z,14.10
2023-03-22T13:33:37.227Z,13.90
2023-03-22T13:36:25.299Z,13.80
2023-03-22T13:38:58.925Z,13.80
2023-03-22T13:41:36.046Z,13.80
2023-03-22T13:44:39.415Z,13.80
2023-03-22T13:47:45.956Z,13.80
2023-03-22T13:50:17.678Z,13.60
2023-03-22T13:53:05.197Z,13.60
2023-03-22T13:55:51.529Z,13.60
2023-03-22T13:58:36.234Z,13.70
2023-03-22T14:01:16.569Z,13.80
2023-03-22T14:03:53.105Z,13.90
2023-03-22T14:06:34.408Z,13.90
2023-03-22T14:09:11.189Z,13.90
2023-03-22T14:11:57.100Z,14.00
2023-03-22T14:14:50.655Z,14.00
2023-03-22T14:17:50.717Z,14.10
2023-03-22T14:20:24.064Z,14.20
